createdAt,value
2022-10-13T00:00:09.347Z,22.13
2022-10-13T00:00:42.520Z,20.58
2022-10-13T00:00:57.377Z,21.27
2022-10-13T00:01:11.667Z,20.12
2022-10-13T00:01:25.506Z,19.33
2022-10-13T00:01:57.124Z,19.42
2022-10-13T00:02:41.029Z,19.08
2022-10-13T00:02:53.945Z,20.85
2022-10-13T00:03:09.068Z,20.88
2022-10-13T00:03:22.371Z,20.50
2022-10-13T00:03:38.590Z,20.60
2022-10-13T00:03:51.792Z,20.92
2022-10-13T00:04:05.717Z,20.90
2022-10-13T00:04:21.216Z,21.40
2022-10-13T00:04:34.138Z,20.35
2022-10-13T00:04:47.832Z,19.70
2022-10-13T00:05:20.715Z,19.55
2022-10-13T00:05:34.063Z,19.62
2022-10-13T00:05:48.063Z,20.00
2022-10-13T00:06:01.091Z,20.52
2022-10-13T00:06:15.673Z,21.65
2022-10-13T00:06:28.543Z,21.15
2022-10-13T00:06:41.972Z,21.08
2022-10-13T00:06:54.766Z,20.67
2022-10-13T00:07:07.971Z,19.95
2022-10-13T00:07:20.880Z,20.73
2022-10-13T00:07:33.675Z,21.05
2022-10-13T00:07:46.651Z,21.27
2022-10-13T00:08:01.617Z,19.37
2022-10-13T00:08:15.297Z,19.83
2022-10-13T00:08:32.831Z,20.00
2022-10-13T00:08:45.690Z,19.58
2022-10-13T00:08:58.820Z,19.55
2022-10-13T00:09:13.497Z,21.10
2022-10-13T00:09:26.309Z,21.37
2022-10-13T00:09:39.089Z,20.10
2022-10-13T00:09:52.077Z,19.00
2022-10-13T00:10:05.757Z,18.62
2022-10-13T00:10:18.966Z,18.40
2022-10-13T00:10:31.807Z,19.75
2022-10-13T00:10:45.799Z,20.50
2022-10-13T00:11:00.384Z,19.65
2022-10-13T00:11:31.415Z,23.62
2022-10-13T00:11:45.228Z,21.17
2022-10-13T00:11:58.547Z,20.27
2022-10-13T00:12:11.378Z,18.77
2022-10-13T00:12:28.619Z,20.52
2022-10-13T00:12:41.535Z,20.25
2022-10-13T00:12:54.337Z,20.05
2022-10-13T00:13:08.244Z,20.52
2022-10-13T00:13:23.285Z,19.77
2022-10-13T00:13:37.012Z,20.58
2022-10-13T00:13:50.069Z,21.48
2022-10-13T00:14:04.345Z,20.42
2022-10-13T00:14:17.410Z,20.80
2022-10-13T00:14:34.768Z,21.30
2022-10-13T00:14:47.768Z,20.88
2022-10-13T00:15:00.988Z,20.55
2022-10-13T00:15:13.795Z,19.83
2022-10-13T00:15:43.199Z,19.50
2022-10-13T00:16:02.215Z,20.48
2022-10-13T00:16:17.202Z,21.85
2022-10-13T00:16:32.282Z,20.73
2022-10-13T00:16:45.153Z,20.37
2022-10-13T00:16:57.989Z,20.30
2022-10-13T00:17:10.839Z,20.77
2022-10-13T00:17:24.242Z,20.77
2022-10-13T00:17:37.631Z,21.48
2022-10-13T00:17:50.764Z,20.92
2022-10-13T00:18:04.484Z,22.62
2022-10-13T00:18:17.348Z,22.55
2022-10-13T00:18:30.325Z,22.65
2022-10-13T00:18:43.229Z,23.05
2022-10-13T00:18:58.536Z,21.75
2022-10-13T00:19:14.942Z,20.60
2022-10-13T00:19:30.226Z,22.62
2022-10-13T00:19:44.154Z,23.02
2022-10-13T00:19:57.440Z,21.73
2022-10-13T00:20:10.612Z,21.50
2022-10-13T00:20:23.408Z,21.33
2022-10-13T00:20:37.324Z,19.83
2022-10-13T00:20:52.315Z,20.62
2022-10-13T00:21:09.219Z,21.67
2022-10-13T00:21:24.363Z,19.87
2022-10-13T00:21:37.202Z,19.85
2022-10-13T00:21:51.958Z,19.92
2022-10-13T00:22:05.184Z,19.45
2022-10-13T00:22:20.772Z,22.05
2022-10-13T00:22:35.135Z,22.75
2022-10-13T00:22:47.995Z,20.85
2022-10-13T00:23:01.275Z,19.10
2022-10-13T00:23:14.223Z,18.65
2022-10-13T00:23:27.043Z,19.40
2022-10-13T00:23:40.834Z,19.50
2022-10-13T00:23:54.769Z,19.52
2022-10-13T00:24:10.493Z,19.17
2022-10-13T00:24:23.834Z,19.48
2022-10-13T00:24:38.960Z,19.05
2022-10-13T00:24:53.855Z,19.17
2022-10-13T00:25:07.237Z,20.17
2022-10-13T00:25:21.185Z,20.52
2022-10-13T00:25:46.759Z,20.10
2022-10-13T00:26:04.371Z,19.00
2022-10-13T00:26:17.783Z,19.08
2022-10-13T00:26:30.999Z,18.75
2022-10-13T00:26:43.828Z,19.75
2022-10-13T00:26:59.283Z,19.80
2022-10-13T00:27:12.329Z,19.42
2022-10-13T00:27:25.221Z,20.08
2022-10-13T00:27:39.022Z,19.40
2022-10-13T00:27:51.872Z,20.25
2022-10-13T00:28:05.617Z,20.17
2022-10-13T00:28:19.827Z,19.70
2022-10-13T00:28:35.281Z,19.67
2022-10-13T00:28:52.292Z,19.48
2022-10-13T00:29:10.315Z,18.95
2022-10-13T00:29:23.102Z,19.95
2022-10-13T00:29:36.108Z,19.08
2022-10-13T00:29:49.406Z,18.77
2022-10-13T00:30:03.475Z,19.17
2022-10-13T00:30:16.374Z,19.30
2022-10-13T00:30:29.221Z,19.27
2022-10-13T00:30:42.362Z,18.58
2022-10-13T00:30:55.172Z,18.37
2022-10-13T00:31:31.696Z,18.85
2022-10-13T00:31:46.764Z,21.17
2022-10-13T00:31:59.621Z,22.13
2022-10-13T00:32:12.774Z,21.58
2022-10-13T00:32:25.902Z,19.80
2022-10-13T00:32:38.781Z,20.67
2022-10-13T00:32:52.645Z,21.12
2022-10-13T00:33:06.025Z,20.52
2022-10-13T00:33:18.815Z,18.98
2022-10-13T00:33:31.670Z,19.23
2022-10-13T00:33:44.587Z,19.77
2022-10-13T00:33:58.336Z,20.77
2022-10-13T00:34:11.488Z,19.58
2022-10-13T00:34:24.569Z,18.85
2022-10-13T00:34:38.235Z,19.87
2022-10-13T00:34:51.118Z,20.10
2022-10-13T00:35:04.301Z,19.90
2022-10-13T00:35:17.350Z,19.30
2022-10-13T00:35:32.337Z,19.40
2022-10-13T00:35:47.485Z,18.60
2022-10-13T00:36:00.368Z,19.45
2022-10-13T00:36:13.344Z,19.65
2022-10-13T00:36:27.225Z,18.67
2022-10-13T00:36:41.418Z,20.20
2022-10-13T00:36:54.222Z,21.10
2022-10-13T00:37:07.141Z,20.92
2022-10-13T00:37:19.933Z,20.30
2022-10-13T00:37:32.752Z,19.83
2022-10-13T00:37:45.586Z,19.48
2022-10-13T00:37:58.416Z,20.05
2022-10-13T00:38:11.451Z,21.00
2022-10-13T00:38:25.193Z,19.96
2022-10-13T00:38:38.291Z,19.87
2022-10-13T00:38:52.557Z,20.67
2022-10-13T00:39:08.237Z,20.37
2022-10-13T00:39:21.074Z,18.90
2022-10-13T00:39:34.286Z,20.33
2022-10-13T00:39:47.381Z,21.10
2022-10-13T00:40:00.723Z,22.52
2022-10-13T00:40:14.640Z,22.15
2022-10-13T00:40:27.860Z,20.92
2022-10-13T00:40:52.266Z,20.50
2022-10-13T00:41:05.647Z,20.67
2022-10-13T00:41:18.627Z,20.27
2022-10-13T00:41:31.476Z,19.52
2022-10-13T00:41:44.784Z,18.45
2022-10-13T00:41:58.529Z,18.80
2022-10-13T00:42:12.832Z,18.87
2022-10-13T00:42:27.228Z,20.08
2022-10-13T00:42:41.671Z,19.55
2022-10-13T00:42:54.555Z,18.40
2022-10-13T00:43:14.828Z,20.17
2022-10-13T00:43:47.566Z,21.70
2022-10-13T00:44:05.523Z,19.62
2022-10-13T00:44:55.831Z,19.12
2022-10-13T00:45:22.782Z,19.95
2022-10-13T00:45:35.922Z,18.55
2022-10-13T00:45:50.806Z,19.50
2022-10-13T00:46:03.728Z,20.08
2022-10-13T00:46:16.583Z,18.95
2022-10-13T00:46:36.191Z,19.65
2022-10-13T00:46:49.006Z,18.55
2022-10-13T00:47:02.238Z,20.40
2022-10-13T00:47:15.083Z,21.35
2022-10-13T00:47:31.376Z,19.95
2022-10-13T00:47:56.161Z,20.05
2022-10-13T00:48:09.004Z,18.98
2022-10-13T00:48:28.847Z,18.15
2022-10-13T00:48:41.811Z,19.33
2022-10-13T00:49:14.566Z,18.98
2022-10-13T00:49:27.460Z,18.70
2022-10-13T00:50:02.889Z,18.52
2022-10-13T00:50:18.016Z,19.08
2022-10-13T00:50:36.035Z,19.33
2022-10-13T00:50:49.831Z,19.50
2022-10-13T00:51:02.700Z,20.60
2022-10-13T00:51:16.571Z,20.45
2022-10-13T00:51:30.621Z,19.00
2022-10-13T00:51:45.117Z,18.65
2022-10-13T00:51:58.028Z,20.58
2022-10-13T00:52:27.113Z,20.62
2022-10-13T00:52:40.558Z,20.48
2022-10-13T00:52:53.701Z,19.85
2022-10-13T00:53:06.843Z,20.83
2022-10-13T00:53:23.388Z,21.17
2022-10-13T00:53:36.957Z,20.30
2022-10-13T00:53:51.033Z,20.67
2022-10-13T00:54:04.495Z,19.75
2022-10-13T00:54:37.238Z,19.25
2022-10-13T00:54:52.302Z,20.30
2022-10-13T00:55:05.747Z,20.60
2022-10-13T00:55:21.229Z,19.52
2022-10-13T00:55:35.453Z,19.30
2022-10-13T00:55:48.553Z,20.02
2022-10-13T00:56:01.656Z,19.83
2022-10-13T00:56:15.501Z,18.75
2022-10-13T00:56:28.438Z,18.23
2022-10-13T00:56:42.993Z,18.98
2022-10-13T00:56:56.284Z,20.40
2022-10-13T00:57:09.135Z,20.50
2022-10-13T00:57:21.979Z,20.75
2022-10-13T00:57:38.817Z,19.83
2022-10-13T00:57:55.954Z,19.37
2022-10-13T00:58:10.461Z,19.62
2022-10-13T00:58:23.753Z,18.33
2022-10-13T00:58:37.036Z,18.73
2022-10-13T00:58:50.176Z,19.52
2022-10-13T00:59:03.875Z,19.42
2022-10-13T00:59:23.283Z,19.95
2022-10-13T01:00:19.048Z,19.50
2022-10-13T01:00:32.947Z,20.80
2022-10-13T01:00:46.948Z,19.92
2022-10-13T01:00:59.856Z,18.85
2022-10-13T01:01:13.394Z,20.45
2022-10-13T01:01:28.431Z,22.05
2022-10-13T01:01:45.637Z,20.25
2022-10-13T01:01:59.130Z,18.98
2022-10-13T01:02:12.156Z,18.90
2022-10-13T01:02:28.395Z,19.42
2022-10-13T01:02:41.606Z,19.95
2022-10-13T01:02:54.448Z,18.90
2022-10-13T01:03:07.690Z,18.80
2022-10-13T01:03:20.987Z,19.42
2022-10-13T01:03:34.324Z,18.58
2022-10-13T01:03:48.058Z,19.23
2022-10-13T01:04:01.309Z,19.33
2022-10-13T01:04:14.117Z,19.10
2022-10-13T01:04:30.844Z,20.52
2022-10-13T01:04:46.651Z,20.55
2022-10-13T01:04:59.632Z,21.37
2022-10-13T01:05:12.862Z,20.98
2022-10-13T01:05:26.039Z,20.15
2022-10-13T01:05:40.122Z,19.70
2022-10-13T01:05:56.127Z,20.20
2022-10-13T01:06:09.249Z,19.25
2022-10-13T01:06:23.774Z,18.77
2022-10-13T01:06:36.889Z,19.80
2022-10-13T01:06:49.974Z,20.62
2022-10-13T01:07:06.746Z,19.45
2022-10-13T01:07:20.815Z,19.80
2022-10-13T01:07:34.923Z,19.70
2022-10-13T01:08:08.206Z,19.05
2022-10-13T01:08:21.985Z,18.85
2022-10-13T01:08:35.077Z,19.65
2022-10-13T01:08:48.121Z,20.50
2022-10-13T01:09:01.143Z,20.17
2022-10-13T01:09:14.953Z,20.38
2022-10-13T01:09:34.863Z,20.90
2022-10-13T01:09:47.968Z,20.52
2022-10-13T01:10:05.665Z,21.00
2022-10-13T01:10:46.376Z,22.98
2022-10-13T01:11:22.958Z,23.85
2022-10-13T01:11:49.632Z,21.15
2022-10-13T01:12:21.495Z,20.75
2022-10-13T01:13:04.509Z,20.75
2022-10-13T01:13:24.708Z,21.08
2022-10-13T01:14:02.576Z,19.52
2022-10-13T01:14:35.535Z,18.98
2022-10-13T01:14:48.424Z,19.98
2022-10-13T01:26:57.968Z,16.61
2022-10-13T01:27:25.484Z,20.83
2022-10-13T01:28:01.318Z,19.85
2022-10-13T01:28:21.026Z,20.05
2022-10-13T01:28:59.337Z,18.15
2022-10-13T01:29:46.959Z,21.00
2022-10-13T01:30:04.843Z,20.67
2022-10-13T01:30:21.822Z,20.40
2022-10-13T01:30:37.391Z,20.75
2022-10-13T01:31:24.751Z,21.55
2022-10-13T01:32:18.878Z,20.30
2022-10-13T01:32:54.318Z,20.27
2022-10-13T01:33:29.749Z,19.75
2022-10-13T01:34:20.923Z,18.55
2022-10-13T01:34:59.586Z,20.65
2022-10-13T01:35:28.894Z,20.62
2022-10-13T01:36:04.177Z,19.25
2022-10-13T01:37:03.528Z,20.48
2022-10-13T01:37:45.105Z,18.48
2022-10-13T01:38:03.723Z,18.42
2022-10-13T01:38:44.985Z,21.60
2022-10-13T01:39:09.815Z,20.65
2022-10-13T01:39:55.692Z,20.83
2022-10-13T01:40:51.680Z,20.25
2022-10-13T01:41:28.837Z,20.62
2022-10-13T02:21:45.420Z,20.65
2022-10-13T02:21:59.003Z,21.90
2022-10-13T02:22:33.733Z,19.40
2022-10-13T02:22:48.103Z,19.55
2022-10-13T02:23:03.153Z,19.90
2022-10-13T02:23:20.070Z,19.15
2022-10-13T02:23:34.113Z,18.75
2022-10-13T02:24:07.537Z,21.25
2022-10-13T02:44:51.321Z,17.55
2022-10-13T02:45:04.827Z,17.80
2022-10-13T02:45:18.198Z,19.10
2022-10-13T02:45:31.655Z,19.17
2022-10-13T02:45:44.827Z,18.95
2022-10-13T02:45:59.289Z,18.92
2022-10-13T02:46:13.288Z,18.85
2022-10-13T02:46:27.055Z,18.92
2022-10-13T02:46:40.268Z,18.80
2022-10-13T02:46:53.959Z,18.73
2022-10-13T02:47:08.835Z,19.08
2022-10-13T02:47:22.146Z,19.95
2022-10-13T02:47:39.124Z,18.62
2022-10-13T02:48:11.871Z,18.65
2022-10-13T02:48:25.748Z,18.95
2022-10-13T02:48:39.130Z,20.42
2022-10-13T02:48:52.550Z,20.70
2022-10-13T02:49:25.460Z,20.30
2022-10-13T02:49:38.812Z,19.12
2022-10-13T02:50:08.339Z,19.10
2022-10-13T02:50:23.067Z,20.00
2022-10-13T02:50:36.316Z,20.58
2022-10-13T02:50:49.144Z,21.48
2022-10-13T03:05:17.980Z,18.73
2022-10-13T03:05:31.138Z,20.05
2022-10-13T03:05:48.542Z,20.35
2022-10-13T03:06:01.541Z,20.37
2022-10-13T03:06:15.226Z,19.85
2022-10-13T03:06:29.934Z,21.12
2022-10-13T03:06:47.446Z,21.80
2022-10-13T03:07:00.290Z,20.33
2022-10-13T03:07:13.680Z,20.42
2022-10-13T03:07:27.113Z,20.08
2022-10-13T03:07:40.333Z,20.52
2022-10-13T03:07:53.311Z,23.25
2022-10-13T03:08:06.592Z,22.83
2022-10-13T03:08:20.449Z,19.37
2022-10-13T03:08:34.088Z,19.52
2022-10-13T03:08:47.859Z,19.37
2022-10-13T03:09:01.194Z,19.70
2022-10-13T03:09:14.427Z,20.17
2022-10-13T03:09:47.384Z,19.90
2022-10-13T03:10:00.494Z,20.37
2022-10-13T03:10:33.520Z,18.17
2022-10-13T03:10:46.864Z,18.40
2022-10-13T03:10:59.905Z,18.80
2022-10-13T03:11:32.835Z,17.00
2022-10-13T03:11:46.371Z,18.35
2022-10-13T03:12:00.741Z,19.83
2022-10-13T03:12:14.433Z,19.62
2022-10-13T03:12:47.157Z,18.05
2022-10-13T03:13:00.682Z,18.83
2022-10-13T03:13:13.759Z,17.90
2022-10-13T03:13:26.875Z,18.10
2022-10-13T03:13:40.080Z,19.05
2022-10-13T03:14:13.357Z,19.45
2022-10-13T03:14:26.613Z,18.85
2022-10-13T03:14:40.209Z,19.48
2022-10-13T03:14:57.151Z,20.33
2022-10-13T03:15:10.709Z,20.65
2022-10-13T03:15:25.502Z,19.42
2022-10-13T03:15:38.892Z,18.73
2022-10-13T03:15:52.812Z,19.20
2022-10-13T03:16:06.638Z,19.87
2022-10-13T03:16:40.335Z,18.50
2022-10-13T03:16:53.218Z,19.48
2022-10-13T03:17:11.147Z,19.77
2022-10-13T03:17:26.451Z,19.45
2022-10-13T03:17:39.589Z,19.87
2022-10-13T03:17:56.341Z,20.98
2022-10-13T03:18:09.801Z,21.15
2022-10-13T03:18:22.835Z,19.98
2022-10-13T03:18:36.700Z,18.95
2022-10-13T03:18:49.548Z,18.90
2022-10-13T03:19:20.602Z,18.90
2022-10-13T03:19:54.677Z,18.87
2022-10-13T03:20:08.492Z,18.25
2022-10-13T03:20:23.417Z,17.55
2022-10-13T03:20:44.340Z,17.65
2022-10-13T03:21:00.452Z,17.40
2022-10-13T03:21:33.364Z,18.48
2022-10-13T03:21:46.879Z,19.05
2022-10-13T03:22:04.124Z,19.83
2022-10-13T03:22:22.647Z,20.48
2022-10-13T03:22:36.379Z,19.33
2022-10-13T03:23:09.145Z,17.42
2022-10-13T03:23:22.168Z,18.20
2022-10-13T03:23:43.196Z,18.00
2022-10-13T03:23:56.558Z,18.17
2022-10-13T03:24:10.260Z,18.42
2022-10-13T03:24:23.240Z,18.45
2022-10-13T03:24:36.344Z,18.90
2022-10-13T03:24:50.058Z,18.35
2022-10-13T03:25:03.950Z,17.83
2022-10-13T03:25:17.235Z,17.95
2022-10-13T03:25:30.527Z,17.70
2022-10-13T03:25:47.941Z,18.05
2022-10-13T03:26:00.812Z,18.37
2022-10-13T03:26:15.567Z,17.95
2022-10-13T03:26:48.300Z,16.87
2022-10-13T03:27:01.336Z,17.05
2022-10-13T03:27:14.315Z,19.12
2022-10-13T03:27:48.989Z,17.00
2022-10-13T03:28:03.956Z,18.30
2022-10-13T03:28:16.829Z,18.05
2022-10-13T03:28:29.999Z,17.95
2022-10-13T03:28:43.342Z,18.98
2022-10-13T03:28:56.406Z,18.55
2022-10-13T03:29:16.468Z,17.80
2022-10-13T03:29:49.420Z,17.67
2022-10-13T03:30:02.796Z,17.75
2022-10-13T03:30:35.693Z,18.58
2022-10-13T03:31:09.157Z,19.55
2022-10-13T03:31:21.983Z,19.20
2022-10-13T03:31:54.966Z,18.73
2022-10-13T03:32:08.702Z,17.35
2022-10-13T03:32:22.157Z,17.45
2022-10-13T03:32:37.177Z,16.92
2022-10-13T03:32:49.972Z,16.42
2022-10-13T03:33:07.017Z,17.42
2022-10-13T03:33:19.892Z,18.90
2022-10-13T03:33:32.759Z,18.50
2022-10-13T03:33:45.606Z,16.92
2022-10-13T03:34:00.386Z,18.12
2022-10-13T03:34:35.053Z,18.58
2022-10-13T03:35:08.904Z,17.58
2022-10-13T03:35:21.821Z,18.40
2022-10-13T03:36:19.840Z,18.85
2022-10-13T03:36:32.895Z,17.27
2022-10-13T03:37:06.343Z,17.67
2022-10-13T03:37:20.228Z,18.65
2022-10-13T03:37:33.084Z,18.65
2022-10-13T04:15:41.489Z,18.95
2022-10-13T04:16:05.045Z,18.42
2022-10-13T04:16:23.791Z,18.40
2022-10-13T04:16:37.200Z,18.25
2022-10-13T04:16:50.027Z,18.27
2022-10-13T04:17:04.073Z,18.58
2022-10-13T04:17:17.471Z,17.87
2022-10-13T04:17:39.017Z,18.05
2022-10-13T04:17:55.904Z,19.45
2022-10-13T04:18:08.982Z,19.95
2022-10-13T04:18:22.023Z,20.35
2022-10-13T04:18:42.402Z,19.67
2022-10-13T04:18:59.471Z,18.37
2022-10-13T04:19:31.493Z,17.80
2022-10-13T04:19:44.668Z,17.85
2022-10-13T04:19:57.801Z,17.52
2022-10-13T04:20:11.136Z,17.50
2022-10-13T04:20:43.858Z,17.40
2022-10-13T04:21:10.224Z,18.02
2022-10-13T04:21:33.614Z,16.37
2022-10-13T04:21:47.423Z,17.45
2022-10-13T04:22:02.208Z,17.75
2022-10-13T04:22:15.464Z,17.15
2022-10-13T04:22:28.716Z,17.83
2022-10-13T04:22:43.509Z,18.45
2022-10-13T04:22:56.306Z,18.85
2022-10-13T04:23:09.485Z,18.45
2022-10-13T04:23:30.396Z,16.62
2022-10-13T04:23:43.338Z,16.98
2022-10-13T04:23:58.134Z,17.08
2022-10-13T04:24:12.358Z,17.10
2022-10-13T04:24:25.593Z,17.45
2022-10-13T04:24:38.772Z,17.75
2022-10-13T04:25:41.400Z,17.17
2022-10-13T04:25:56.661Z,18.35
2022-10-13T04:26:21.988Z,17.90
2022-10-13T04:26:54.878Z,19.48
2022-10-13T04:27:27.666Z,18.80
2022-10-13T04:27:48.230Z,19.20
2022-10-13T04:28:02.789Z,19.85
2022-10-13T04:28:36.086Z,18.37
2022-10-13T04:28:49.964Z,19.02
2022-10-13T04:29:04.341Z,18.85
2022-10-13T04:29:20.970Z,17.80
2022-10-13T04:29:34.146Z,18.17
2022-10-13T04:29:47.705Z,17.98
2022-10-13T04:30:01.031Z,17.12
2022-10-13T04:30:14.630Z,16.62
2022-10-13T04:30:49.138Z,18.50
2022-10-13T04:31:03.267Z,18.30
2022-10-13T04:31:16.267Z,18.15
2022-10-13T04:31:33.249Z,19.00
2022-10-13T04:31:46.129Z,18.58
2022-10-13T04:32:01.983Z,17.42
2022-10-13T04:32:15.029Z,18.02
2022-10-13T04:32:47.771Z,17.77
2022-10-13T04:33:00.952Z,18.10
2022-10-13T04:33:22.465Z,18.42
2022-10-13T04:33:35.268Z,17.52
2022-10-13T04:33:52.206Z,18.08
2022-10-13T04:34:07.721Z,19.10
2022-10-13T04:34:22.689Z,18.62
2022-10-13T04:34:36.156Z,17.55
2022-10-13T04:34:49.677Z,17.67
2022-10-13T04:35:06.807Z,17.50
2022-10-13T04:35:19.862Z,17.92
2022-10-13T04:35:32.972Z,17.92
2022-10-13T05:05:05.203Z,16.97
2022-10-13T05:05:23.953Z,18.55
2022-10-13T05:05:56.752Z,18.05
2022-10-13T05:06:20.672Z,18.70
2022-10-13T05:06:34.876Z,18.27
2022-10-13T05:07:15.975Z,17.40
2022-10-13T05:07:20.706Z,18.33
2022-10-13T05:07:33.824Z,17.70
2022-10-13T05:07:47.004Z,17.60
2022-10-13T05:08:00.194Z,17.37
2022-10-13T05:08:13.279Z,17.65
2022-10-13T05:08:26.336Z,17.75
2022-10-13T05:08:39.183Z,16.83
2022-10-13T05:08:53.149Z,17.58
2022-10-13T05:09:06.025Z,19.12
2022-10-13T05:09:19.089Z,19.77
2022-10-13T05:09:32.062Z,17.73
2022-10-13T05:10:05.180Z,17.45
2022-10-13T05:10:20.293Z,18.98
2022-10-13T05:10:34.897Z,18.67
2022-10-13T05:11:01.041Z,18.60
2022-10-13T05:11:14.546Z,19.08
2022-10-13T05:11:29.547Z,18.10
2022-10-13T05:11:42.345Z,17.50
2022-10-13T05:11:55.277Z,17.98
2022-10-13T05:12:08.556Z,17.33
2022-10-13T05:12:21.827Z,17.48
2022-10-13T05:12:35.525Z,17.10
2022-10-13T05:12:48.544Z,16.67
2022-10-13T05:13:01.738Z,16.90
2022-10-13T05:13:14.603Z,17.23
2022-10-13T05:13:27.932Z,17.15
2022-10-13T05:13:44.950Z,17.98
2022-10-13T05:13:57.806Z,19.45
2022-10-13T05:14:10.689Z,20.08
2022-10-13T05:14:23.623Z,17.70
2022-10-13T05:14:36.459Z,17.08
2022-10-13T05:14:49.705Z,17.27
2022-10-13T05:15:03.751Z,16.92
2022-10-13T05:15:16.646Z,16.87
2022-10-13T05:15:29.458Z,17.55
2022-10-13T05:15:42.539Z,17.27
2022-10-13T05:15:56.095Z,17.08
2022-10-13T05:16:10.545Z,17.42
2022-10-13T05:16:23.660Z,17.55
2022-10-13T05:16:37.427Z,18.20
2022-10-13T05:16:51.255Z,18.20
2022-10-13T05:17:04.277Z,17.83
2022-10-13T05:17:17.156Z,17.62
2022-10-13T05:17:35.111Z,16.45
2022-10-13T05:18:05.095Z,17.83
2022-10-13T05:18:18.033Z,18.00
2022-10-13T05:18:30.841Z,17.15
2022-10-13T05:18:43.778Z,19.02
2022-10-13T05:18:56.948Z,20.08
2022-10-13T05:19:11.599Z,17.55
2022-10-13T05:19:26.778Z,16.40
2022-10-13T05:19:39.581Z,16.48
2022-10-13T05:19:52.709Z,16.40
2022-10-13T05:20:05.919Z,16.52
2022-10-13T05:20:18.806Z,15.80
2022-10-13T05:20:33.637Z,15.38
2022-10-13T05:20:46.847Z,15.65
2022-10-13T05:21:13.636Z,16.02
2022-10-13T05:21:28.087Z,17.70
2022-10-13T05:21:40.881Z,18.40
2022-10-13T05:21:53.740Z,17.70
2022-10-13T05:22:06.563Z,16.83
2022-10-13T05:22:20.037Z,17.52
2022-10-13T05:22:33.356Z,18.75
2022-10-13T05:22:46.173Z,18.85
2022-10-13T05:22:59.048Z,17.87
2022-10-13T05:23:12.101Z,17.48
2022-10-13T05:23:25.557Z,18.52
2022-10-13T05:23:38.926Z,17.95
2022-10-13T05:23:55.525Z,17.15
2022-10-13T05:24:13.541Z,18.58
2022-10-13T05:24:36.482Z,19.27
2022-10-13T05:25:09.274Z,17.30
2022-10-13T05:25:22.228Z,17.15
2022-10-13T05:25:54.953Z,16.55
2022-10-13T05:26:10.081Z,15.63
2022-10-13T05:26:27.872Z,16.75
2022-10-13T05:26:41.192Z,18.73
2022-10-13T05:26:54.467Z,18.87
2022-10-13T05:27:09.578Z,17.87
2022-10-13T05:27:23.268Z,16.00
2022-10-13T05:27:54.872Z,16.75
2022-10-13T05:28:07.984Z,16.60
2022-10-13T05:28:20.877Z,16.70
2022-10-13T05:28:38.619Z,16.95
2022-10-13T05:28:51.933Z,15.88
2022-10-13T05:29:04.838Z,15.52
2022-10-13T05:29:18.377Z,15.48
2022-10-13T05:29:31.360Z,16.83
2022-10-13T05:30:29.657Z,17.98
2022-10-13T05:30:42.507Z,16.92
2022-10-13T05:30:55.517Z,16.40
2022-10-13T05:31:13.146Z,17.10
2022-10-13T05:31:27.157Z,17.33
2022-10-13T05:31:40.344Z,16.35
2022-10-13T05:31:53.490Z,15.82
2022-10-13T05:32:06.559Z,16.25
2022-10-13T05:32:19.776Z,16.48
2022-10-13T05:32:35.417Z,15.60
2022-10-13T05:32:51.577Z,15.63
2022-10-13T05:33:06.597Z,16.77
2022-10-13T05:33:19.925Z,16.62
2022-10-13T05:33:34.572Z,15.65
2022-10-13T05:33:48.029Z,15.75
2022-10-13T05:34:01.513Z,16.50
2022-10-13T05:34:14.912Z,16.60
2022-10-13T05:34:27.977Z,16.45
2022-10-13T05:34:40.805Z,16.40
2022-10-13T05:34:53.644Z,17.27
2022-10-13T06:15:41.793Z,18.90
2022-10-13T06:15:54.959Z,18.77
2022-10-13T06:16:08.168Z,17.20
2022-10-13T06:16:21.079Z,17.15
2022-10-13T06:16:37.087Z,16.90
2022-10-13T06:16:51.244Z,16.10
2022-10-13T06:17:04.105Z,16.08
2022-10-13T06:17:17.006Z,16.40
2022-10-13T06:17:30.165Z,17.42
2022-10-13T06:17:43.899Z,16.52
2022-10-13T06:17:56.873Z,16.40
2022-10-13T06:18:10.001Z,15.65
2022-10-13T06:18:22.857Z,15.70
2022-10-13T06:18:35.724Z,15.75
2022-10-13T06:18:48.785Z,16.48
2022-10-13T06:19:01.667Z,17.27
2022-10-13T06:19:15.507Z,16.83
2022-10-13T06:19:28.502Z,17.60
2022-10-13T06:19:42.349Z,17.08
2022-10-13T06:19:55.952Z,16.02
2022-10-13T06:20:09.768Z,16.50
2022-10-13T06:20:22.812Z,15.55
2022-10-13T06:20:36.176Z,15.82
2022-10-13T06:21:42.850Z,16.70
2022-10-13T06:21:52.945Z,16.23
2022-10-13T06:22:08.604Z,15.63
2022-10-13T06:22:23.325Z,15.50
2022-10-13T06:22:37.326Z,16.00
2022-10-13T06:22:51.170Z,16.55
2022-10-13T06:23:05.784Z,16.35
2022-10-13T06:23:18.795Z,15.57
2022-10-13T06:23:31.586Z,15.95
2022-10-13T06:23:44.779Z,15.90
2022-10-13T06:23:59.803Z,16.23
2022-10-13T06:24:12.757Z,16.30
2022-10-13T06:24:26.035Z,16.15
2022-10-13T06:24:39.110Z,16.98
2022-10-13T06:24:51.999Z,15.88
2022-10-13T06:25:25.366Z,17.05
2022-10-13T06:25:38.817Z,15.88
2022-10-13T06:25:53.858Z,17.23
2022-10-13T06:26:09.207Z,17.85
2022-10-13T06:26:22.021Z,16.92
2022-10-13T06:26:38.885Z,17.45
2022-10-13T06:26:51.745Z,20.30
2022-10-13T06:27:05.143Z,18.98
2022-10-13T06:27:18.188Z,17.85
2022-10-13T06:27:31.380Z,16.10
2022-10-13T06:27:44.308Z,16.02
2022-10-13T06:28:00.038Z,14.82
2022-10-13T06:28:13.387Z,15.57
2022-10-13T06:28:28.410Z,18.40
2022-10-13T06:28:56.944Z,18.65
2022-10-13T06:29:12.309Z,16.17
2022-10-13T06:29:25.463Z,15.10
2022-10-13T06:29:38.667Z,15.10
2022-10-13T06:29:51.872Z,16.20
2022-10-13T06:30:04.943Z,17.00
2022-10-13T06:30:18.056Z,17.87
2022-10-13T06:30:30.879Z,16.05
2022-10-13T06:30:46.976Z,16.70
2022-10-13T06:31:00.280Z,17.75
2022-10-13T06:31:14.159Z,16.75
2022-10-13T06:31:27.336Z,16.77
2022-10-13T06:31:40.185Z,17.00
2022-10-13T06:31:53.331Z,19.05
2022-10-13T06:32:06.259Z,18.33
2022-10-13T06:32:19.722Z,16.60
2022-10-13T06:32:33.360Z,16.70
2022-10-13T06:32:46.402Z,17.55
2022-10-13T06:33:07.891Z,16.60
2022-10-13T06:33:22.388Z,15.93
2022-10-13T06:33:35.423Z,17.40
2022-10-13T06:33:49.163Z,17.33
2022-10-13T06:34:02.853Z,17.05
2022-10-13T06:34:16.019Z,16.98
2022-10-13T06:34:29.420Z,16.83
2022-10-13T06:34:43.539Z,17.08
2022-10-13T06:34:56.873Z,17.42
2022-10-13T06:35:09.972Z,18.65
2022-10-13T06:35:23.920Z,18.00
2022-10-13T06:35:38.019Z,17.00
2022-10-13T06:35:53.767Z,18.65
2022-10-13T06:36:07.281Z,19.30
2022-10-13T06:36:20.200Z,17.75
2022-10-13T06:36:33.002Z,16.27
2022-10-13T06:36:45.895Z,16.98
2022-10-13T06:36:58.939Z,17.52
2022-10-13T06:37:32.078Z,18.75
2022-10-13T06:37:48.728Z,17.45
2022-10-13T06:38:04.266Z,16.77
2022-10-13T06:38:18.414Z,15.30
2022-10-13T06:38:31.800Z,15.52
2022-10-13T06:38:44.686Z,18.67
2022-10-13T06:38:57.957Z,18.58
2022-10-13T06:39:11.249Z,16.83
2022-10-13T06:39:24.161Z,17.35
2022-10-13T06:39:37.368Z,16.75
2022-10-13T06:39:50.453Z,16.92
2022-10-13T06:40:23.263Z,16.62
2022-10-13T06:40:36.433Z,16.28
2022-10-13T06:40:49.281Z,17.98
2022-10-13T06:41:22.043Z,16.48
2022-10-13T06:41:34.963Z,16.25
2022-10-13T06:41:48.275Z,15.90
2022-10-13T06:42:01.485Z,15.10
2022-10-13T06:42:14.365Z,16.70
2022-10-13T06:42:34.874Z,17.70
2022-10-13T06:43:26.030Z,18.20
2022-10-13T06:44:38.325Z,18.10
2022-10-13T06:44:57.190Z,17.85
2022-10-13T06:45:50.292Z,18.12
2022-10-13T06:46:15.477Z,16.65
2022-10-13T06:46:28.294Z,16.85
2022-10-13T06:46:41.119Z,17.25
2022-10-13T06:46:53.975Z,16.80
2022-10-13T06:47:06.844Z,16.87
2022-10-13T06:47:19.633Z,16.85
2022-10-13T06:47:32.449Z,17.23
2022-10-13T06:47:45.936Z,18.02
2022-10-13T06:47:58.754Z,18.15
2022-10-13T06:48:13.468Z,18.48
2022-10-13T06:48:26.797Z,18.45
2022-10-13T06:48:51.110Z,18.62
2022-10-13T06:49:03.946Z,19.70
2022-10-13T06:49:16.768Z,18.83
2022-10-13T06:49:30.058Z,18.48
2022-10-13T06:49:43.535Z,19.35
2022-10-13T06:49:57.083Z,19.55
2022-10-13T06:50:10.034Z,19.45
2022-10-13T06:50:23.261Z,20.30
2022-10-13T06:50:40.676Z,20.15
2022-10-13T06:50:56.049Z,18.77
2022-10-13T06:51:09.771Z,17.80
2022-10-13T06:51:23.709Z,18.60
2022-10-13T06:51:36.716Z,19.40
2022-10-13T06:51:49.599Z,20.37
2022-10-13T06:52:02.396Z,19.87
2022-10-13T06:52:24.692Z,18.85
2022-10-13T06:52:37.736Z,18.95
2022-10-13T06:52:50.535Z,19.80
2022-10-13T06:53:47.395Z,19.95
2022-10-13T06:54:00.731Z,21.27